createdAt,value
2019-05-30T00:00:46.520Z,101103.14
2019-05-30T00:03:18.849Z,101098.86
2019-05-30T00:05:52.215Z,101097.28
2019-05-30T00:08:24.344Z,101093.05
2019-05-30T00:10:56.578Z,101090.98
2019-05-30T00:13:28.687Z,101086.02
2019-05-30T00:16:02.962Z,101089.19
2019-05-30T00:18:35.388Z,101092.55
2019-05-30T00:21:07.684Z,101090.75
2019-05-30T00:23:39.931Z,101087.13
2019-05-30T00:26:12.108Z,101082.20
2019-05-30T00:28:44.304Z,101093.66
2019-05-30T00:31:16.597Z,101086.61
2019-05-30T00:33:48.744Z,101087.00
2019-05-30T00:36:21.009Z,101085.48
2019-05-30T00:38:53.250Z,101081.75
2019-05-30T00:41:25.468Z,101083.67
2019-05-30T00:43:57.912Z,101078.98
2019-05-30T00:46:30.202Z,101082.60
2019-05-30T00:49:02.577Z,101081.33
2019-05-30T00:51:35.954Z,101095.61
2019-05-30T00:54:08.173Z,101089.33
2019-05-30T00:56:40.403Z,101087.70
2019-05-30T00:59:12.652Z,101086.08
2019-05-30T01:01:44.905Z,101082.31
2019-05-30T01:04:18.161Z,101079.72
2019-05-30T01:06:50.334Z,101079.58
2019-05-30T01:09:22.563Z,101084.25
2019-05-30T01:11:54.789Z,101075.26
2019-05-30T01:14:26.993Z,101074.27
2019-05-30T01:16:59.207Z,101071.64
2019-05-30T01:19:31.347Z,101075.02
2019-05-30T01:22:03.744Z,101072.03
2019-05-30T01:24:35.963Z,101065.40
2019-05-30T01:27:08.165Z,101064.66
2019-05-30T01:29:40.351Z,101067.17
2019-05-30T01:32:30.831Z,101071.86
2019-05-30T01:35:03.843Z,101070.58
2019-05-30T01:37:36.187Z,101077.70
2019-05-30T01:40:09.007Z,101073.55
2019-05-30T01:42:41.318Z,101070.25
2019-05-30T01:45:14.263Z,101066.42
2019-05-30T01:47:46.418Z,101062.28
2019-05-30T01:50:18.455Z,101065.40
2019-05-30T01:52:50.875Z,101061.57
2019-05-30T01:55:23.219Z,101062.25
2019-05-30T01:57:55.389Z,101074.84
2019-05-30T02:00:36.287Z,101066.25
2019-05-30T02:03:09.558Z,101067.92
2019-05-30T02:05:41.813Z,101073.02
2019-05-30T02:08:14.031Z,101079.02
2019-05-30T02:10:46.212Z,101085.33
2019-05-30T02:13:18.318Z,101084.86
2019-05-30T02:15:50.620Z,101093.25
2019-05-30T02:18:22.865Z,101093.86
2019-05-30T02:20:55.069Z,101090.70
2019-05-30T02:23:27.161Z,101086.65
2019-05-30T02:26:00.083Z,101099.17
2019-05-30T02:28:32.731Z,101098.07
2019-05-30T02:31:05.701Z,101107.75
2019-05-30T02:33:38.952Z,101107.30
2019-05-30T02:36:12.691Z,101110.91
2019-05-30T02:38:45.043Z,101103.47
2019-05-30T02:41:17.238Z,101103.75
2019-05-30T02:43:49.382Z,101105.91
2019-05-30T02:46:21.618Z,101111.30
2019-05-30T02:48:59.301Z,101110.00
2019-05-30T02:51:28.709Z,101112.77
2019-05-30T02:54:01.557Z,101105.28
2019-05-30T02:56:34.945Z,101104.83
2019-05-30T02:59:09.253Z,101110.22
2019-05-30T03:01:59.050Z,101112.50
2019-05-30T03:04:15.209Z,101105.52
2019-05-30T03:06:47.335Z,101114.49
2019-05-30T03:09:19.590Z,101113.33
2019-05-30T03:11:52.225Z,101110.17
2019-05-30T03:14:24.414Z,101108.86
2019-05-30T03:16:56.613Z,101109.84
2019-05-30T03:19:28.633Z,101114.14
2019-05-30T03:22:02.950Z,101105.97
2019-05-30T03:24:34.787Z,101106.72
2019-05-30T03:27:09.399Z,101107.52
2019-05-30T03:29:40.926Z,101101.90
2019-05-30T03:32:58.308Z,101104.65
2019-05-30T03:34:46.978Z,101105.06
2019-05-30T03:37:28.543Z,101096.22
2019-05-30T03:39:52.775Z,101102.61
2019-05-30T03:42:24.730Z,101101.73
2019-05-30T03:44:56.955Z,101105.58
2019-05-30T03:47:28.922Z,101101.51
2019-05-30T03:50:00.961Z,101104.05
2019-05-30T03:52:33.202Z,101106.59
2019-05-30T03:55:07.523Z,101110.95
2019-05-30T03:57:49.579Z,101110.75
2019-05-30T04:00:42.954Z,101103.99
2019-05-30T04:03:43.827Z,101114.30
2019-05-30T04:06:27.323Z,101115.70
2019-05-30T04:09:07.341Z,101106.74
2019-05-30T04:11:55.175Z,101108.18
2019-05-30T04:14:27.171Z,101114.38
2019-05-30T04:17:08.322Z,101121.39
2019-05-30T04:19:47.033Z,101128.14
2019-05-30T04:22:21.343Z,101130.27
2019-05-30T04:25:10.153Z,101140.12
2019-05-30T04:30:47.522Z,101135.94
2019-05-30T04:33:36.011Z,101144.36
2019-05-30T04:36:22.065Z,101138.47
2019-05-30T04:39:00.105Z,101138.41
2019-05-30T04:45:13.602Z,101141.20
2019-05-30T04:47:53.504Z,101141.48
2019-05-30T04:50:33.945Z,101139.45
2019-05-30T04:53:21.033Z,101137.37
2019-05-30T04:55:59.954Z,101133.14
2019-05-30T04:58:40.586Z,101138.07
2019-05-30T05:11:01.277Z,101138.63
2019-05-30T05:13:41.153Z,101138.80
2019-05-30T05:26:29.601Z,101141.65
2019-05-30T06:03:00.922Z,101160.03
2019-05-30T06:05:33.171Z,101151.39
2019-05-30T06:08:30.146Z,101149.20
2019-05-30T06:11:24.444Z,101150.07
2019-05-30T06:30:07.884Z,101141.78
2019-05-30T06:32:46.262Z,101147.93
2019-05-30T06:36:13.954Z,101152.13
2019-05-30T06:38:52.501Z,101145.42
2019-05-30T06:59:43.887Z,101152.95
2019-05-30T07:02:30.631Z,101148.75
2019-05-30T07:05:14.087Z,101155.73
2019-05-30T07:07:57.731Z,101154.32
2019-05-30T07:13:57.017Z,101158.25
2019-05-30T07:16:31.436Z,101159.34
2019-05-30T07:22:26.214Z,101157.34
2019-05-30T07:35:25.962Z,101158.09
2019-05-30T07:38:14.427Z,101156.66
2019-05-30T07:50:59.417Z,101152.00
2019-05-30T07:57:28.076Z,101151.64
2019-05-30T08:05:35.246Z,101161.34
2019-05-30T08:33:39.744Z,101154.08
2019-05-30T08:36:30.854Z,101157.60
2019-05-30T08:39:11.565Z,101155.56
2019-05-30T08:42:00.404Z,101142.34
2019-05-30T08:44:42.043Z,101155.30
2019-05-30T08:50:48.467Z,101148.29
2019-05-30T08:57:22.861Z,101149.21
2019-05-30T08:59:55.749Z,101148.81
2019-05-30T09:05:27.209Z,101147.27
2019-05-30T09:08:08.718Z,101153.98
2019-05-30T09:10:42.917Z,101149.36
2019-05-30T09:13:19.096Z,101158.02
2019-05-30T09:15:51.213Z,101139.70
2019-05-30T09:18:26.451Z,101147.17
2019-05-30T09:21:02.446Z,101149.00
2019-05-30T09:23:39.100Z,101154.66
2019-05-30T09:26:12.565Z,101140.84
2019-05-30T09:28:48.348Z,101150.90
2019-05-30T09:31:33.739Z,101147.88
2019-05-30T09:34:06.011Z,101151.99
2019-05-30T09:36:39.501Z,101152.30
2019-05-30T09:39:18.675Z,101148.02
2019-05-30T09:42:07.902Z,101146.14
2019-05-30T09:44:47.946Z,101145.48
2019-05-30T09:47:18.226Z,101134.66
2019-05-30T09:49:50.989Z,101140.81
2019-05-30T09:55:17.050Z,101138.63
2019-05-30T09:57:52.308Z,101131.52
2019-05-30T10:00:29.028Z,101135.86
2019-05-30T10:03:01.332Z,101130.36
2019-05-30T10:05:33.650Z,101124.04
2019-05-30T10:08:05.906Z,101127.82
2019-05-30T10:10:38.352Z,101128.34
2019-05-30T10:13:10.598Z,101121.83
2019-05-30T10:15:42.828Z,101126.02
2019-05-30T10:18:15.021Z,101122.51
2019-05-30T10:20:48.190Z,101126.08
2019-05-30T10:23:23.379Z,101125.59
2019-05-30T10:25:55.461Z,101120.95
2019-05-30T10:28:29.187Z,101115.97
2019-05-30T10:31:02.026Z,101130.00
2019-05-30T10:33:37.027Z,101118.87
2019-05-30T10:36:14.673Z,101120.61
2019-05-30T10:38:49.081Z,101120.38
2019-05-30T10:41:24.569Z,101131.92
2019-05-30T10:43:57.314Z,101133.90
2019-05-30T10:46:29.679Z,101122.02
2019-05-30T10:49:01.818Z,101124.41
2019-05-30T10:51:34.044Z,101130.57
2019-05-30T10:54:06.079Z,101127.51
2019-05-30T10:56:39.979Z,101120.42
2019-05-30T10:59:12.117Z,101123.43
2019-05-30T11:01:44.150Z,101129.91
2019-05-30T11:04:16.285Z,101120.94
2019-05-30T11:07:10.679Z,101123.43
2019-05-30T11:09:37.021Z,101123.33
2019-05-30T11:12:10.311Z,101127.14
2019-05-30T11:14:42.503Z,101126.10
2019-05-30T11:17:14.610Z,101125.49
2019-05-30T11:19:47.611Z,101125.35
2019-05-30T11:22:20.013Z,101131.09
2019-05-30T11:24:54.437Z,101121.28
2019-05-30T11:27:26.787Z,101133.20
2019-05-30T11:29:59.039Z,101134.36
2019-05-30T11:32:32.867Z,101126.15
2019-05-30T11:35:06.543Z,101132.11
2019-05-30T11:37:38.567Z,101134.24
2019-05-30T11:40:10.719Z,101138.18
2019-05-30T11:42:44.541Z,101144.90
2019-05-30T11:45:20.661Z,101141.05
2019-05-30T11:47:53.788Z,101144.38
2019-05-30T11:50:27.687Z,101144.98
2019-05-30T11:53:00.232Z,101145.16
2019-05-30T11:55:35.621Z,101139.53
2019-05-30T11:58:13.838Z,101138.84
2019-05-30T12:00:47.445Z,101132.27
2019-05-30T12:03:29.404Z,101131.08
2019-05-30T12:06:01.387Z,101131.03
2019-05-30T12:08:33.426Z,101126.52
2019-05-30T12:11:05.666Z,101134.77
2019-05-30T12:13:37.980Z,101127.52
2019-05-30T12:16:10.333Z,101119.58
2019-05-30T12:18:42.521Z,101127.30
2019-05-30T12:21:14.655Z,101122.83
2019-05-30T12:23:46.716Z,101124.35
2019-05-30T12:26:18.808Z,101122.07
2019-05-30T12:28:55.950Z,101123.75
2019-05-30T12:31:28.366Z,101121.42
2019-05-30T12:34:00.657Z,101122.06
2019-05-30T12:36:32.778Z,101116.38
2019-05-30T12:39:07.312Z,101122.11
2019-05-30T12:41:45.077Z,101116.61
2019-05-30T12:50:50.879Z,101115.36
2019-05-30T12:53:23.388Z,101116.67
2019-05-30T12:55:56.378Z,101117.74
2019-05-30T12:58:28.741Z,101122.21
2019-05-30T13:01:00.983Z,101115.27
2019-05-30T13:03:36.394Z,101123.72
2019-05-30T13:06:09.679Z,101116.72
2019-05-30T13:08:42.175Z,101117.47
2019-05-30T13:11:14.543Z,101124.36
2019-05-30T13:13:46.671Z,101118.19
2019-05-30T13:16:19.005Z,101129.77
2019-05-30T13:18:51.220Z,101130.13
2019-05-30T13:21:23.474Z,101119.39
2019-05-30T13:23:55.618Z,101123.57
2019-05-30T13:26:28.091Z,101126.16
2019-05-30T13:29:00.536Z,101119.87
2019-05-30T13:31:32.921Z,101120.33
2019-05-30T13:34:05.082Z,101118.64
2019-05-30T13:36:37.259Z,101118.97
2019-05-30T13:39:09.572Z,101125.45
2019-05-30T13:41:41.610Z,101126.59
2019-05-30T13:44:13.964Z,101123.72
2019-05-30T13:46:46.225Z,101117.88
2019-05-30T13:49:18.331Z,101110.84
2019-05-30T13:51:50.722Z,101106.88
2019-05-30T13:54:26.017Z,101114.55
2019-05-30T13:56:59.341Z,101111.78
2019-05-30T13:59:31.941Z,101113.48
2019-05-30T14:02:04.113Z,101112.91
2019-05-30T14:04:37.329Z,101110.94
2019-05-30T14:07:10.766Z,101113.84
2019-05-30T14:09:43.027Z,101113.56
2019-05-30T14:12:16.327Z,101110.19
2019-05-30T14:14:48.594Z,101110.47
2019-05-30T14:17:20.896Z,101104.95
2019-05-30T14:19:53.340Z,101099.92
2019-05-30T14:22:25.669Z,101102.83
2019-05-30T14:24:58.024Z,101105.21
2019-05-30T14:27:30.348Z,101106.98
2019-05-30T14:30:03.103Z,101101.07
2019-05-30T14:32:35.600Z,101100.03
2019-05-30T14:35:13.341Z,101096.73
2019-05-30T14:37:44.615Z,101094.48
2019-05-30T14:40:16.983Z,101096.77
2019-05-30T14:42:49.309Z,101089.46
2019-05-30T14:45:21.529Z,101090.91
2019-05-30T14:47:53.779Z,101089.70
2019-05-30T14:50:26.092Z,101087.92
2019-05-30T14:52:58.375Z,101097.30
2019-05-30T14:55:30.655Z,101101.33
2019-05-30T14:58:02.970Z,101100.12
2019-05-30T15:00:35.315Z,101102.73
2019-05-30T15:03:11.552Z,101100.89
2019-05-30T15:05:42.106Z,101108.00
2019-05-30T15:08:23.865Z,101113.25
2019-05-30T15:11:03.092Z,101107.80
2019-05-30T15:13:35.537Z,101111.55
2019-05-30T15:16:08.794Z,101117.28
2019-05-30T15:18:41.235Z,101122.38
2019-05-30T15:21:14.463Z,101120.69
2019-05-30T15:23:47.054Z,101110.28
2019-05-30T15:26:19.408Z,101114.25
2019-05-30T15:28:51.692Z,101105.53
2019-05-30T15:31:23.841Z,101105.53
2019-05-30T15:33:56.171Z,101105.82
2019-05-30T15:36:28.200Z,101102.20
2019-05-30T15:39:00.400Z,101102.20
2019-05-30T15:41:32.560Z,101096.67
2019-05-30T15:44:04.698Z,101105.38
2019-05-30T15:46:36.959Z,101084.77
2019-05-30T15:49:10.543Z,101084.77
2019-05-30T15:51:42.664Z,101094.80
2019-05-30T15:54:15.042Z,101085.24
2019-05-30T15:56:47.549Z,101088.05
2019-05-30T15:59:22.424Z,101091.39
2019-05-30T16:01:55.204Z,101082.30
2019-05-30T16:04:30.486Z,101084.27
2019-05-30T16:07:03.903Z,101092.64
2019-05-30T16:09:46.863Z,101090.29
2019-05-30T16:12:10.991Z,101093.70
2019-05-30T16:14:43.325Z,101093.41
2019-05-30T16:17:15.842Z,101100.41
2019-05-30T16:19:48.418Z,101095.91
2019-05-30T16:22:20.680Z,101094.30
2019-05-30T16:24:52.903Z,101097.70
2019-05-30T16:27:26.075Z,101092.20
2019-05-30T16:30:04.823Z,101100.95
2019-05-30T16:32:40.290Z,101100.42
2019-05-30T16:35:16.191Z,101103.63
2019-05-30T16:41:14.068Z,101103.35
2019-05-30T16:43:46.540Z,101098.97
2019-05-30T16:46:22.833Z,101111.14
2019-05-30T16:48:54.999Z,101097.73
2019-05-30T16:58:01.592Z,101101.07
2019-05-30T17:00:33.940Z,101093.36
2019-05-30T17:03:06.583Z,101103.83
2019-05-30T17:05:39.005Z,101107.30
2019-05-30T17:08:11.342Z,101103.72
2019-05-30T17:10:43.721Z,101104.10
2019-05-30T17:13:15.922Z,101104.44
2019-05-30T17:15:48.526Z,101104.76
2019-05-30T17:18:20.851Z,101108.67
2019-05-30T17:20:53.151Z,101107.61
2019-05-30T17:23:26.647Z,101106.23
2019-05-30T17:25:59.455Z,101105.11
2019-05-30T17:28:31.739Z,101105.38
2019-05-30T17:31:04.212Z,101101.18
2019-05-30T17:33:36.571Z,101102.28
2019-05-30T17:36:08.934Z,101099.77
2019-05-30T17:38:44.424Z,101101.70
2019-05-30T17:41:16.628Z,101099.97
2019-05-30T17:43:48.912Z,101101.60
2019-05-30T17:46:21.323Z,101104.92
2019-05-30T17:48:53.548Z,101104.87
2019-05-30T17:51:25.958Z,101116.58
2019-05-30T17:53:58.276Z,101115.13
2019-05-30T17:56:30.713Z,101120.36
2019-05-30T17:59:03.134Z,101123.36
2019-05-30T18:01:36.563Z,101127.78
2019-05-30T18:04:09.311Z,101131.63
2019-05-30T18:06:42.180Z,101134.32
2019-05-30T18:09:14.763Z,101133.45
2019-05-30T18:11:48.801Z,101131.45
2019-05-30T18:14:21.241Z,101135.08
2019-05-30T18:16:53.652Z,101137.71
2019-05-30T18:19:29.663Z,101140.73
2019-05-30T18:22:02.086Z,101148.21
2019-05-30T18:27:35.966Z,101153.13
2019-05-30T18:30:08.960Z,101147.20
2019-05-30T18:32:41.695Z,101155.73
2019-05-30T18:35:14.812Z,101157.67
2019-05-30T18:37:47.673Z,101154.53
2019-05-30T18:40:44.943Z,101157.23
2019-05-30T18:47:04.370Z,101151.42
